createdAt,value
2019-03-15T00:00:16.668Z,18.93
2019-03-15T00:01:16.568Z,18.93
2019-03-15T00:02:16.571Z,19.02
2019-03-15T00:03:16.573Z,18.93
2019-03-15T00:04:16.676Z,18.93
2019-03-15T00:05:16.580Z,18.93
2019-03-15T00:06:16.580Z,18.83
2019-03-15T00:07:16.584Z,19.12
2019-03-15T00:08:16.588Z,18.73
2019-03-15T00:09:16.590Z,18.93
2019-03-15T00:10:16.593Z,18.73
2019-03-15T00:11:16.596Z,18.83
2019-03-15T00:12:16.601Z,18.93
2019-03-15T00:13:16.602Z,18.93
2019-03-15T00:14:16.608Z,18.93
2019-03-15T00:15:16.610Z,18.83
2019-03-15T00:16:16.712Z,18.83
2019-03-15T00:17:16.665Z,18.73
2019-03-15T00:18:16.622Z,18.93
2019-03-15T00:19:16.620Z,18.73
2019-03-15T00:20:16.623Z,19.02
2019-03-15T00:21:16.676Z,18.73
2019-03-15T00:22:16.631Z,18.73
2019-03-15T00:23:16.632Z,18.83
2019-03-15T00:24:16.640Z,18.83
2019-03-15T00:25:16.687Z,18.83
2019-03-15T00:26:16.643Z,18.73
2019-03-15T00:27:16.642Z,18.73
2019-03-15T00:28:16.646Z,18.64
2019-03-15T00:29:16.649Z,18.83
2019-03-15T00:30:16.652Z,18.64
2019-03-15T00:31:16.661Z,18.73
2019-03-15T00:32:16.657Z,18.73
2019-03-15T00:33:16.660Z,18.83
2019-03-15T00:34:16.838Z,18.64
2019-03-15T00:35:16.716Z,18.83
2019-03-15T00:36:16.668Z,18.73
2019-03-15T00:37:16.674Z,18.83
2019-03-15T00:38:16.676Z,18.83
2019-03-15T00:39:16.677Z,18.83
2019-03-15T00:40:16.829Z,18.73
2019-03-15T00:41:16.682Z,18.73
2019-03-15T00:42:16.687Z,18.83
2019-03-15T00:43:16.691Z,18.73
2019-03-15T00:44:16.692Z,18.73
2019-03-15T00:45:16.695Z,18.64
2019-03-15T00:46:16.697Z,18.64
2019-03-15T00:47:17.415Z,18.83
2019-03-15T00:48:16.704Z,18.93
2019-03-15T00:49:16.706Z,18.64
2019-03-15T00:50:16.709Z,18.64
2019-03-15T00:51:16.712Z,18.83
2019-03-15T00:52:16.715Z,18.73
2019-03-15T00:53:16.719Z,18.73
2019-03-15T00:54:16.771Z,18.83
2019-03-15T00:55:16.728Z,18.93
2019-03-15T00:56:16.825Z,18.93
2019-03-15T00:57:16.729Z,18.93
2019-03-15T00:58:16.732Z,18.83
2019-03-15T00:59:16.736Z,18.83
2019-03-15T01:00:16.989Z,18.83
2019-03-15T01:01:16.740Z,18.83
2019-03-15T01:02:16.744Z,18.93
2019-03-15T01:03:16.747Z,18.83
2019-03-15T01:04:16.752Z,18.64
2019-03-15T01:05:16.753Z,18.64
2019-03-15T01:06:16.757Z,18.73
2019-03-15T01:07:16.759Z,18.64
2019-03-15T01:08:16.862Z,18.83
2019-03-15T01:09:16.768Z,18.64
2019-03-15T01:10:16.765Z,18.83
2019-03-15T01:11:16.772Z,18.54
2019-03-15T01:12:16.773Z,18.44
2019-03-15T01:13:16.775Z,18.44
2019-03-15T01:14:16.779Z,18.35
2019-03-15T01:15:16.786Z,18.35
2019-03-15T01:16:16.784Z,18.64
2019-03-15T01:17:16.786Z,18.54
2019-03-15T01:18:16.789Z,18.54
2019-03-15T01:19:16.794Z,18.54
2019-03-15T01:20:16.800Z,18.54
2019-03-15T01:21:16.799Z,18.54
2019-03-15T01:22:16.801Z,18.54
2019-03-15T01:23:16.802Z,18.44
2019-03-15T01:24:16.810Z,18.44
2019-03-15T01:25:16.809Z,18.44
2019-03-15T01:26:16.812Z,18.64
2019-03-15T01:27:16.822Z,18.54
2019-03-15T01:28:17.020Z,18.54
2019-03-15T01:29:16.821Z,18.54
2019-03-15T01:30:16.827Z,18.54
2019-03-15T01:31:16.827Z,18.54
2019-03-15T01:32:16.884Z,18.44
2019-03-15T01:33:16.835Z,18.44
2019-03-15T01:34:16.836Z,18.44
2019-03-15T01:35:16.839Z,18.64
2019-03-15T01:36:16.840Z,18.64
2019-03-15T01:37:16.848Z,18.54
2019-03-15T01:38:16.847Z,18.54
2019-03-15T01:39:16.850Z,18.44
2019-03-15T01:40:16.853Z,18.44
2019-03-15T01:41:16.855Z,18.44
2019-03-15T01:42:16.859Z,18.44
2019-03-15T01:43:16.863Z,18.54
2019-03-15T01:44:16.865Z,18.54
2019-03-15T01:45:16.867Z,18.54
2019-03-15T01:46:16.874Z,18.44
2019-03-15T01:47:16.874Z,18.44
2019-03-15T01:48:16.991Z,18.54
2019-03-15T01:49:16.878Z,18.44
2019-03-15T01:50:16.881Z,18.44
2019-03-15T01:51:16.886Z,18.44
2019-03-15T01:52:16.889Z,18.44
2019-03-15T01:53:16.890Z,18.54
2019-03-15T01:54:16.892Z,18.54
2019-03-15T01:55:16.989Z,18.54
2019-03-15T01:56:16.899Z,18.44
2019-03-15T01:57:16.903Z,18.54
2019-03-15T01:58:16.904Z,18.44
2019-03-15T01:59:16.907Z,18.54
2019-03-15T02:00:16.910Z,18.64
2019-03-15T02:01:16.913Z,18.54
2019-03-15T02:02:17.069Z,18.64
2019-03-15T02:03:16.923Z,18.64
2019-03-15T02:04:17.022Z,18.54
2019-03-15T02:05:16.922Z,18.64
2019-03-15T02:06:17.488Z,18.44
2019-03-15T02:07:16.929Z,18.54
2019-03-15T02:08:16.941Z,18.44
2019-03-15T02:09:16.935Z,18.44
2019-03-15T02:10:16.938Z,18.54
2019-03-15T02:11:16.941Z,18.64
2019-03-15T02:12:16.944Z,18.44
2019-03-15T02:13:16.946Z,18.54
2019-03-15T02:14:16.950Z,18.44
2019-03-15T02:15:17.005Z,18.54
2019-03-15T02:16:16.955Z,18.25
2019-03-15T02:17:16.957Z,18.73
2019-03-15T02:18:16.961Z,18.64
2019-03-15T02:19:16.964Z,18.25
2019-03-15T02:20:16.967Z,18.35
2019-03-15T02:21:16.968Z,18.35
2019-03-15T02:22:16.971Z,18.15
2019-03-15T02:23:16.976Z,18.15
2019-03-15T02:24:16.978Z,18.15
2019-03-15T02:25:16.982Z,18.25
2019-03-15T02:26:16.982Z,18.64
2019-03-15T02:27:16.986Z,18.15
2019-03-15T02:28:16.990Z,18.44
2019-03-15T02:29:16.991Z,18.15
2019-03-15T02:30:16.996Z,18.44
2019-03-15T02:31:16.998Z,18.35
2019-03-15T02:32:17.001Z,18.35
2019-03-15T02:33:17.002Z,18.35
2019-03-15T02:34:17.009Z,18.25
2019-03-15T02:35:17.018Z,18.25
2019-03-15T02:36:17.013Z,18.25
2019-03-15T02:37:17.019Z,18.35
2019-03-15T02:38:17.268Z,18.25
2019-03-15T02:39:17.021Z,18.25
2019-03-15T02:40:17.124Z,18.44
2019-03-15T02:41:17.026Z,18.25
2019-03-15T02:42:17.031Z,18.25
2019-03-15T02:43:17.051Z,18.44
2019-03-15T02:44:17.035Z,18.35
2019-03-15T02:45:17.037Z,18.25
2019-03-15T02:46:17.044Z,18.25
2019-03-15T02:47:17.046Z,18.35
2019-03-15T02:48:17.048Z,18.35
2019-03-15T02:49:17.048Z,18.15
2019-03-15T02:50:17.052Z,18.35
2019-03-15T02:51:17.059Z,18.25
2019-03-15T02:52:17.058Z,18.15
2019-03-15T02:53:17.060Z,18.25
2019-03-15T02:54:17.062Z,18.15
2019-03-15T02:55:17.066Z,18.15
2019-03-15T02:56:17.068Z,18.15
2019-03-15T02:57:17.070Z,18.25
2019-03-15T02:58:17.083Z,18.15
2019-03-15T02:59:17.077Z,18.15
2019-03-15T03:00:17.182Z,18.05
2019-03-15T03:01:17.084Z,18.15
2019-03-15T03:02:17.086Z,18.35
2019-03-15T03:03:17.088Z,18.15
2019-03-15T03:04:17.100Z,18.15
2019-03-15T03:05:17.093Z,18.15
2019-03-15T03:06:17.098Z,18.05
2019-03-15T03:07:17.110Z,18.05
2019-03-15T03:08:17.103Z,18.25
2019-03-15T03:09:17.105Z,18.15
2019-03-15T03:10:17.111Z,18.25
2019-03-15T03:11:17.123Z,18.25
2019-03-15T03:12:17.582Z,18.25
2019-03-15T03:13:17.120Z,18.15
2019-03-15T03:14:17.126Z,18.15
2019-03-15T03:15:17.123Z,18.15
2019-03-15T03:16:18.536Z,18.15
2019-03-15T03:17:17.131Z,18.15
2019-03-15T03:18:17.231Z,18.25
2019-03-15T03:19:17.183Z,18.05
2019-03-15T03:20:17.142Z,18.15
2019-03-15T03:21:17.144Z,18.15
2019-03-15T03:22:17.198Z,18.15
2019-03-15T03:23:17.145Z,18.25
2019-03-15T03:24:17.147Z,18.15
2019-03-15T03:25:17.411Z,18.15
2019-03-15T03:26:17.166Z,18.15
2019-03-15T03:27:17.306Z,18.15
2019-03-15T03:28:17.161Z,18.15
2019-03-15T03:29:17.161Z,18.05
2019-03-15T03:30:17.524Z,18.15
2019-03-15T03:31:17.543Z,18.25
2019-03-15T03:32:17.171Z,18.25
2019-03-15T03:33:17.196Z,18.25
2019-03-15T03:34:17.179Z,18.15
2019-03-15T03:35:17.178Z,18.15
2019-03-15T03:36:17.183Z,18.15
2019-03-15T03:37:17.190Z,18.25
2019-03-15T03:38:17.188Z,18.05
2019-03-15T03:39:17.197Z,18.15
2019-03-15T03:40:20.226Z,18.15
2019-03-15T03:41:17.244Z,18.05
2019-03-15T03:42:17.207Z,17.96
2019-03-15T03:43:17.204Z,18.15
2019-03-15T03:44:17.203Z,18.15
2019-03-15T03:45:17.205Z,18.15
2019-03-15T03:46:17.209Z,18.15
2019-03-15T03:47:17.213Z,18.15
2019-03-15T03:48:17.263Z,18.15
2019-03-15T03:49:17.217Z,18.05
2019-03-15T03:50:17.220Z,18.05
2019-03-15T03:51:17.225Z,18.05
2019-03-15T03:52:17.226Z,18.05
2019-03-15T03:53:17.237Z,18.05
2019-03-15T03:54:17.231Z,17.96
2019-03-15T03:55:17.235Z,18.05
2019-03-15T03:56:17.526Z,17.96
2019-03-15T03:57:17.240Z,18.05
2019-03-15T03:58:17.244Z,18.05
2019-03-15T03:59:17.254Z,17.96
2019-03-15T04:00:17.299Z,17.96
2019-03-15T04:01:17.251Z,18.05
2019-03-15T04:02:17.254Z,18.05
2019-03-15T04:03:17.255Z,18.15
2019-03-15T04:04:17.260Z,18.05
2019-03-15T04:05:17.265Z,18.05
2019-03-15T04:06:17.266Z,18.35
2019-03-15T04:07:17.272Z,18.35
2019-03-15T04:08:17.272Z,18.25
2019-03-15T04:09:17.280Z,18.25
2019-03-15T04:10:17.276Z,18.05
2019-03-15T04:11:17.280Z,18.35
2019-03-15T04:12:17.383Z,18.35
2019-03-15T04:13:17.289Z,18.35
2019-03-15T04:14:17.338Z,18.15
2019-03-15T04:15:17.290Z,18.35
2019-03-15T04:16:17.294Z,18.25
2019-03-15T04:17:17.320Z,18.15
2019-03-15T04:18:17.299Z,18.25
2019-03-15T04:19:17.301Z,18.25
2019-03-15T04:20:17.305Z,18.15
2019-03-15T04:21:17.659Z,18.05
2019-03-15T04:22:17.310Z,17.96
2019-03-15T04:23:17.313Z,17.96
2019-03-15T04:24:17.365Z,18.15
2019-03-15T04:25:17.319Z,18.05
2019-03-15T04:26:17.321Z,17.96
2019-03-15T04:27:17.328Z,17.96
2019-03-15T04:28:17.327Z,18.05
2019-03-15T04:29:17.329Z,17.96
2019-03-15T04:30:17.389Z,18.15
2019-03-15T04:31:17.336Z,18.05
2019-03-15T04:32:17.339Z,18.05
2019-03-15T04:33:17.340Z,18.15
2019-03-15T04:34:17.343Z,17.96
2019-03-15T04:35:17.350Z,17.96
2019-03-15T04:36:17.353Z,17.96
2019-03-15T04:37:17.354Z,18.05
2019-03-15T04:38:17.356Z,17.96
2019-03-15T04:39:17.462Z,17.96
2019-03-15T04:40:17.360Z,18.25
2019-03-15T04:41:17.363Z,17.96
2019-03-15T04:42:17.366Z,18.05
2019-03-15T04:43:17.369Z,18.05
2019-03-15T04:44:17.373Z,17.96
2019-03-15T04:45:17.374Z,17.96
2019-03-15T04:46:17.378Z,18.05
2019-03-15T04:47:17.380Z,17.96
2019-03-15T04:48:17.385Z,18.15
2019-03-15T04:49:17.385Z,17.96
2019-03-15T04:50:17.388Z,18.05
2019-03-15T04:51:17.391Z,18.15
2019-03-15T04:52:17.446Z,17.96
2019-03-15T04:53:17.849Z,17.96
2019-03-15T04:54:17.399Z,18.05
2019-03-15T04:55:17.402Z,18.15
2019-03-15T04:56:17.406Z,18.05
2019-03-15T04:57:17.408Z,18.05
2019-03-15T04:58:17.410Z,18.05
2019-03-15T04:59:17.416Z,18.05
2019-03-15T05:00:17.573Z,18.05
2019-03-15T05:01:17.423Z,17.96
2019-03-15T05:02:17.575Z,18.15
2019-03-15T05:03:17.525Z,18.05
2019-03-15T05:04:17.427Z,18.05
2019-03-15T05:05:17.532Z,18.05
2019-03-15T05:06:17.589Z,18.05
2019-03-15T05:07:17.489Z,18.05
2019-03-15T05:08:17.438Z,17.96
2019-03-15T05:09:17.492Z,17.96
2019-03-15T05:10:17.444Z,18.05
2019-03-15T05:11:17.446Z,18.05
2019-03-15T05:12:17.449Z,18.05
2019-03-15T05:13:17.453Z,18.05
2019-03-15T05:14:17.454Z,17.96
2019-03-15T05:15:17.458Z,17.96
2019-03-15T05:16:17.461Z,17.96
2019-03-15T05:17:17.516Z,18.25
2019-03-15T05:18:17.467Z,18.05
2019-03-15T05:19:17.469Z,18.05
2019-03-15T05:20:17.472Z,18.15
2019-03-15T05:21:17.626Z,18.05
2019-03-15T05:22:17.477Z,18.15
2019-03-15T05:23:17.479Z,18.35
2019-03-15T05:24:17.484Z,18.15
2019-03-15T05:25:17.490Z,18.25
2019-03-15T05:26:17.489Z,18.05
2019-03-15T05:27:17.579Z,18.05
2019-03-15T05:28:17.492Z,18.44
2019-03-15T05:29:17.496Z,18.44
2019-03-15T05:30:17.499Z,17.96
2019-03-15T05:31:17.502Z,18.05
2019-03-15T05:32:17.506Z,18.15
2019-03-15T05:33:17.557Z,18.15
2019-03-15T05:34:17.510Z,18.25
2019-03-15T05:35:17.595Z,18.15
2019-03-15T05:36:17.617Z,18.25
2019-03-15T05:37:17.521Z,18.44
2019-03-15T05:38:17.522Z,18.35
2019-03-15T05:39:17.527Z,18.25
2019-03-15T05:40:17.629Z,18.64
2019-03-15T05:41:17.533Z,18.44
2019-03-15T05:42:17.532Z,18.25
2019-03-15T05:43:17.537Z,18.35
2019-03-15T05:44:17.542Z,18.15
2019-03-15T05:45:17.795Z,18.15
2019-03-15T05:46:17.544Z,17.96
2019-03-15T05:47:17.599Z,18.25
2019-03-15T05:48:17.600Z,18.15
2019-03-15T05:49:17.554Z,18.05
2019-03-15T05:50:17.555Z,18.05
2019-03-15T05:51:17.558Z,18.15
2019-03-15T05:52:17.561Z,17.96
2019-03-15T05:53:18.014Z,18.05
2019-03-15T05:54:17.566Z,18.05
2019-03-15T05:55:17.570Z,17.96
2019-03-15T05:56:17.623Z,18.05
2019-03-15T05:57:17.575Z,18.25
2019-03-15T05:58:17.578Z,18.05
2019-03-15T05:59:17.581Z,18.35
2019-03-15T06:00:17.582Z,18.15
2019-03-15T06:01:17.586Z,18.25
2019-03-15T06:02:17.589Z,18.15
2019-03-15T06:03:17.643Z,18.35
2019-03-15T06:04:17.595Z,18.25
2019-03-15T06:05:17.597Z,18.64
2019-03-15T06:06:17.606Z,18.73
2019-03-15T06:07:17.609Z,18.44
2019-03-15T06:08:17.769Z,18.54
2019-03-15T06:09:17.660Z,18.54
2019-03-15T06:10:17.612Z,18.83
2019-03-15T06:11:17.616Z,18.73
2019-03-15T06:12:17.619Z,18.83
2019-03-15T06:13:17.771Z,18.74
2019-03-15T06:14:17.628Z,18.73
2019-03-15T06:15:17.729Z,18.83
2019-03-15T06:16:17.690Z,18.83
2019-03-15T06:17:17.633Z,18.73
2019-03-15T06:18:17.836Z,18.94
2019-03-15T06:19:17.641Z,19.02
2019-03-15T06:20:17.645Z,18.74
2019-03-15T06:21:17.659Z,18.93
2019-03-15T06:22:17.748Z,19.04
2019-03-15T06:23:17.651Z,18.84
2019-03-15T06:24:17.655Z,18.73
2019-03-15T06:25:17.657Z,18.94
2019-03-15T06:26:17.657Z,19.02
2019-03-15T06:27:17.717Z,19.02
2019-03-15T06:28:17.666Z,19.04
2019-03-15T06:29:17.672Z,19.04
2019-03-15T06:30:17.671Z,19.04
2019-03-15T06:31:17.772Z,18.83
2019-03-15T06:32:17.828Z,18.93
2019-03-15T06:33:17.831Z,18.84
2019-03-15T06:34:17.687Z,18.84
2019-03-15T06:35:17.744Z,18.84
2019-03-15T06:36:17.748Z,18.94
2019-03-15T06:37:17.741Z,19.13
2019-03-15T06:38:17.745Z,18.74
2019-03-15T06:39:17.698Z,18.94
2019-03-15T06:40:17.753Z,19.04
2019-03-15T06:41:17.703Z,19.04
2019-03-15T06:42:17.856Z,18.94
2019-03-15T06:43:17.869Z,18.74
2019-03-15T06:44:17.717Z,19.32
2019-03-15T06:45:17.717Z,19.32
2019-03-15T06:46:17.820Z,19.32
2019-03-15T06:47:17.722Z,19.13
2019-03-15T06:48:17.925Z,19.42
2019-03-15T06:49:17.778Z,19.62
2019-03-15T06:50:17.741Z,19.91
2019-03-15T06:51:17.732Z,20.20
2019-03-15T06:52:17.790Z,20.49
2019-03-15T06:53:17.740Z,20.20
2019-03-15T06:54:17.744Z,20.68
2019-03-15T06:55:17.747Z,20.88
2019-03-15T06:56:17.752Z,20.88
2019-03-15T06:57:17.754Z,20.98
2019-03-15T06:58:17.763Z,20.78
2019-03-15T06:59:17.867Z,20.59
2019-03-15T07:00:17.767Z,21.08
2019-03-15T07:01:17.814Z,21.27
2019-03-15T07:02:19.574Z,21.27
2019-03-15T07:03:18.571Z,20.59
2019-03-15T07:04:17.925Z,20.39
2019-03-15T07:05:17.826Z,20.20
2019-03-15T07:06:17.788Z,20.10
2019-03-15T07:07:17.834Z,20.10
2019-03-15T07:08:17.785Z,20.39
2019-03-15T07:09:17.787Z,20.01
2019-03-15T07:10:17.894Z,19.91
2019-03-15T07:11:17.800Z,19.81
2019-03-15T07:12:17.900Z,19.71
2019-03-15T07:13:18.321Z,20.20
2019-03-15T07:14:17.803Z,20.10
2019-03-15T07:15:17.864Z,20.20
2019-03-15T07:16:17.960Z,20.20
2019-03-15T07:17:17.812Z,19.81
2019-03-15T07:18:18.719Z,20.01
2019-03-15T07:19:26.365Z,20.01
2019-03-15T07:20:17.872Z,19.81
2019-03-15T07:21:17.824Z,19.81
2019-03-15T07:22:20.019Z,19.81
2019-03-15T07:23:18.114Z,19.81
2019-03-15T07:24:25.045Z,20.10
2019-03-15T07:25:17.837Z,19.91
2019-03-15T07:26:17.941Z,20.39
2019-03-15T07:27:17.896Z,20.49
2019-03-15T07:28:17.846Z,20.10
2019-03-15T07:29:19.085Z,20.20
2019-03-15T07:30:17.955Z,20.10
2019-03-15T07:31:17.955Z,20.30
2019-03-15T07:32:17.891Z,20.20
2019-03-15T07:33:18.024Z,20.10
2019-03-15T07:34:17.865Z,20.30
2019-03-15T07:35:17.898Z,20.98
2019-03-15T07:36:17.871Z,20.78
2019-03-15T07:37:17.973Z,21.08
2019-03-15T07:38:17.982Z,21.08
2019-03-15T07:39:17.881Z,20.78
2019-03-15T07:40:18.384Z,20.88
2019-03-15T07:41:17.934Z,20.70
2019-03-15T07:42:17.906Z,20.59
2019-03-15T07:43:20.034Z,20.49
2019-03-15T07:44:17.895Z,20.49
2019-03-15T07:45:17.899Z,20.88
2019-03-15T07:46:18.066Z,20.78
2019-03-15T07:47:17.956Z,20.78
2019-03-15T07:48:22.756Z,20.98
2019-03-15T07:49:17.912Z,21.09
2019-03-15T07:50:17.966Z,21.56
2019-03-15T07:51:18.023Z,21.47
2019-03-15T07:52:18.099Z,21.18
2019-03-15T07:53:17.973Z,20.88
2019-03-15T07:54:18.025Z,21.09
2019-03-15T07:55:17.990Z,20.78
2019-03-15T07:56:18.039Z,20.49
2019-03-15T07:57:17.939Z,20.88
2019-03-15T07:58:18.240Z,20.88
2019-03-15T07:59:17.942Z,20.50
2019-03-15T08:00:17.996Z,20.49
2019-03-15T08:01:18.048Z,20.49
2019-03-15T08:02:18.502Z,20.78
2019-03-15T08:03:18.205Z,20.68
2019-03-15T08:04:18.259Z,20.78
2019-03-15T08:05:18.110Z,20.60
2019-03-15T08:06:18.212Z,20.98
2019-03-15T08:07:19.992Z,20.88
2019-03-15T08:08:17.968Z,20.78
2019-03-15T08:09:17.972Z,20.70
2019-03-15T08:10:18.227Z,20.79
2019-03-15T08:11:18.258Z,20.79
2019-03-15T08:12:17.988Z,21.08
2019-03-15T08:13:18.036Z,20.79
2019-03-15T08:14:17.987Z,20.68
2019-03-15T08:15:17.992Z,21.18
2019-03-15T08:16:18.044Z,20.98
2019-03-15T08:17:18.049Z,20.79
2019-03-15T08:18:18.002Z,20.68
2019-03-15T08:19:18.057Z,20.50
2019-03-15T08:20:18.014Z,20.89
2019-03-15T08:21:18.013Z,20.70
2019-03-15T08:22:18.116Z,20.99
2019-03-15T08:23:18.068Z,20.89
2019-03-15T08:24:18.022Z,20.99
2019-03-15T08:25:18.178Z,21.18
2019-03-15T08:26:18.027Z,21.09
2019-03-15T08:27:18.182Z,20.99
2019-03-15T08:28:18.034Z,21.18
2019-03-15T08:29:18.138Z,21.09
2019-03-15T08:30:18.293Z,21.57
2019-03-15T08:31:18.343Z,22.06
2019-03-15T08:32:18.150Z,21.67
2019-03-15T08:33:18.550Z,21.67
2019-03-15T08:34:18.103Z,21.57
2019-03-15T08:35:18.061Z,21.67
2019-03-15T08:36:20.305Z,21.57
2019-03-15T08:37:18.066Z,21.57
2019-03-15T08:38:18.165Z,21.47
2019-03-15T08:39:18.070Z,21.37
2019-03-15T08:40:18.251Z,21.37
2019-03-15T08:41:18.223Z,21.57
2019-03-15T08:42:18.177Z,21.57
2019-03-15T08:43:18.182Z,21.47
2019-03-15T08:44:18.085Z,21.09
2019-03-15T08:45:18.087Z,21.28
2019-03-15T08:46:18.091Z,21.57
2019-03-15T08:47:21.464Z,21.47
2019-03-15T08:48:18.100Z,21.86
2019-03-15T08:49:18.152Z,21.96
2019-03-15T08:50:18.108Z,21.86
2019-03-15T08:51:18.107Z,21.77
2019-03-15T08:52:18.160Z,21.96
2019-03-15T08:53:18.319Z,22.16
2019-03-15T08:54:18.216Z,22.25
2019-03-15T08:55:18.116Z,22.06
2019-03-15T08:56:18.126Z,22.06
2019-03-15T08:57:18.129Z,22.16
2019-03-15T08:58:21.825Z,21.86
2019-03-15T08:59:18.133Z,22.25
2019-03-15T09:00:18.285Z,22.44
2019-03-15T09:01:18.239Z,22.25
2019-03-15T09:02:19.094Z,22.25
2019-03-15T09:03:27.803Z,22.35
2019-03-15T09:04:21.276Z,22.44
2019-03-15T09:05:18.566Z,22.54
2019-03-15T09:06:18.506Z,22.54
2019-03-15T09:07:18.459Z,22.44
2019-03-15T09:08:18.313Z,22.44
2019-03-15T09:09:18.272Z,22.25
2019-03-15T09:10:23.263Z,22.64
2019-03-15T09:11:18.170Z,22.74
2019-03-15T09:12:18.176Z,22.54
2019-03-15T09:13:18.176Z,22.64
2019-03-15T09:14:18.181Z,22.54
2019-03-15T09:15:18.182Z,22.25
2019-03-15T09:16:18.186Z,22.25
2019-03-15T09:17:20.010Z,22.35
2019-03-15T09:18:18.194Z,22.25
2019-03-15T09:19:18.200Z,22.35
2019-03-15T09:20:18.202Z,22.35
2019-03-15T09:21:18.205Z,22.44
2019-03-15T09:22:18.207Z,22.35
2019-03-15T09:23:18.226Z,22.54
2019-03-15T09:24:18.242Z,22.54
2019-03-15T09:25:20.129Z,22.54
2019-03-15T09:26:18.223Z,22.35
2019-03-15T09:27:18.228Z,22.44
2019-03-15T09:28:18.229Z,22.44
2019-03-15T09:29:18.231Z,22.35
2019-03-15T09:30:23.676Z,22.25
2019-03-15T09:31:18.246Z,22.35
2019-03-15T09:32:18.241Z,22.35
2019-03-15T09:33:18.243Z,22.35
2019-03-15T09:34:18.246Z,22.54
2019-03-15T09:35:18.267Z,22.54
2019-03-15T09:36:18.256Z,22.44
2019-03-15T09:37:18.256Z,22.64
2019-03-15T09:38:18.259Z,22.64
2019-03-15T09:39:18.261Z,22.74
2019-03-15T09:40:18.273Z,22.74
2019-03-15T09:41:30.873Z,22.64
2019-03-15T09:42:18.272Z,22.74
2019-03-15T09:43:18.276Z,22.74
2019-03-15T09:44:18.281Z,22.54
2019-03-15T09:45:18.286Z,22.74
2019-03-15T09:46:18.285Z,22.83
2019-03-15T09:47:18.288Z,22.64
2019-03-15T09:48:18.292Z,22.64
2019-03-15T09:49:18.299Z,22.74
2019-03-15T09:50:33.227Z,22.44
2019-03-15T09:51:18.303Z,22.54
2019-03-15T09:52:18.308Z,22.44
2019-03-15T09:53:18.308Z,22.44
2019-03-15T09:54:18.309Z,22.44
2019-03-15T09:55:31.963Z,22.25
2019-03-15T09:56:18.317Z,22.25
2019-03-15T09:57:18.322Z,22.25
2019-03-15T09:58:18.325Z,22.44
2019-03-15T09:59:19.488Z,22.16
2019-03-15T10:00:18.331Z,22.54
2019-03-15T10:01:34.293Z,22.35
2019-03-15T10:02:29.688Z,22.35
2019-03-15T10:03:22.397Z,22.44
2019-03-15T10:04:18.345Z,22.44
2019-03-15T10:05:18.345Z,22.25
2019-03-15T10:06:19.653Z,22.25
2019-03-15T10:07:18.400Z,22.25
2019-03-15T10:08:18.357Z,22.25
2019-03-15T10:09:18.359Z,22.25
2019-03-15T10:10:19.204Z,22.25
2019-03-15T10:11:18.371Z,22.44
2019-03-15T10:12:18.370Z,22.25
2019-03-15T10:13:18.373Z,22.54
2019-03-15T10:14:18.378Z,22.35
2019-03-15T10:15:18.399Z,22.44
2019-03-15T10:16:18.383Z,22.44
2019-03-15T10:17:18.385Z,22.25
2019-03-15T10:18:18.397Z,22.35
2019-03-15T10:19:18.398Z,22.25
2019-03-15T10:20:18.399Z,22.25
2019-03-15T10:21:18.403Z,22.35
2019-03-15T10:22:18.432Z,22.35
2019-03-15T10:23:18.405Z,22.35
2019-03-15T10:24:18.411Z,22.25
2019-03-15T10:25:18.412Z,22.35
2019-03-15T10:26:18.415Z,22.35
2019-03-15T10:27:18.419Z,22.35
2019-03-15T10:28:18.422Z,22.44
2019-03-15T10:29:19.634Z,22.44
2019-03-15T10:30:18.428Z,22.64
2019-03-15T10:31:18.430Z,22.54
2019-03-15T10:32:18.436Z,22.54
2019-03-15T10:33:18.436Z,22.64
2019-03-15T10:34:18.441Z,22.74
2019-03-15T10:35:18.444Z,22.83
2019-03-15T10:36:18.446Z,22.93
2019-03-15T10:37:18.451Z,22.93
2019-03-15T10:38:18.455Z,22.83
2019-03-15T10:39:18.460Z,22.83
2019-03-15T10:40:18.463Z,22.93
2019-03-15T10:41:18.463Z,22.93
2019-03-15T10:42:18.470Z,22.93
2019-03-15T10:43:18.479Z,22.93
2019-03-15T10:44:18.476Z,23.13
2019-03-15T10:45:18.477Z,23.32
2019-03-15T10:46:18.481Z,23.42
2019-03-15T10:47:18.485Z,23.32
2019-03-15T10:48:25.276Z,23.32
2019-03-15T10:49:18.499Z,23.32
2019-03-15T10:50:18.494Z,23.42
2019-03-15T10:51:18.498Z,23.42
2019-03-15T10:52:18.511Z,23.90
2019-03-15T10:53:18.518Z,23.61
2019-03-15T10:54:18.515Z,23.43
2019-03-15T10:55:20.697Z,23.61
2019-03-15T10:56:18.512Z,23.90
2019-03-15T10:57:18.516Z,23.80
2019-03-15T10:58:18.522Z,24.29
2019-03-15T10:59:18.524Z,24.39
2019-03-15T11:00:18.529Z,24.49
2019-03-15T11:01:18.531Z,24.10
2019-03-15T11:02:18.534Z,24.19
2019-03-15T11:03:18.537Z,24.11
2019-03-15T11:04:18.541Z,24.50
2019-03-15T11:05:18.544Z,24.29
2019-03-15T11:06:18.548Z,24.69
2019-03-15T11:07:18.551Z,24.58
2019-03-15T11:08:18.555Z,24.29
2019-03-15T11:09:18.586Z,24.21
2019-03-15T11:10:18.562Z,24.21
2019-03-15T11:11:18.570Z,24.21
2019-03-15T11:12:18.574Z,24.19
2019-03-15T11:13:18.572Z,24.21
2019-03-15T11:14:18.576Z,23.91
2019-03-15T11:15:18.577Z,23.62
2019-03-15T11:16:18.588Z,23.33
2019-03-15T11:17:18.586Z,23.42
2019-03-15T11:18:18.593Z,23.14
2019-03-15T11:19:18.589Z,23.42
2019-03-15T11:20:18.597Z,23.43
2019-03-15T11:21:18.699Z,23.43
2019-03-15T11:22:18.603Z,23.43
2019-03-15T11:23:18.606Z,23.24
2019-03-15T11:24:18.610Z,23.43
2019-03-15T11:25:18.616Z,24.01
2019-03-15T11:26:18.616Z,23.91
2019-03-15T11:27:18.619Z,24.11
2019-03-15T11:28:18.623Z,23.72
2019-03-15T11:29:18.632Z,23.62
2019-03-15T11:30:18.635Z,23.82
2019-03-15T11:31:18.638Z,23.82
2019-03-15T11:32:18.637Z,23.91
2019-03-15T11:33:18.640Z,24.01
2019-03-15T11:34:18.649Z,23.91
2019-03-15T11:35:21.251Z,23.91
2019-03-15T11:36:18.655Z,24.01
2019-03-15T11:37:18.659Z,24.30
2019-03-15T11:38:18.657Z,24.21
2019-03-15T11:39:18.662Z,24.30
2019-03-15T11:40:19.560Z,23.82
2019-03-15T11:41:18.671Z,24.21
2019-03-15T11:42:18.672Z,23.91
2019-03-15T11:43:18.674Z,23.91
2019-03-15T11:44:18.680Z,23.72
2019-03-15T11:45:18.686Z,23.91
2019-03-15T11:46:18.687Z,23.82
2019-03-15T11:47:18.706Z,24.19
2019-03-15T11:48:18.693Z,23.91
2019-03-15T11:49:18.699Z,23.80
2019-03-15T11:50:18.703Z,24.01
2019-03-15T11:51:18.699Z,23.91
2019-03-15T11:52:18.707Z,23.91
2019-03-15T11:53:19.066Z,24.00
2019-03-15T11:54:18.712Z,23.71
2019-03-15T11:55:18.723Z,24.00
2019-03-15T11:56:26.826Z,23.90
2019-03-15T11:57:18.722Z,23.90
2019-03-15T11:58:18.726Z,24.01
2019-03-15T11:59:18.729Z,23.90
2019-03-15T12:00:18.733Z,23.80
2019-03-15T12:01:18.737Z,23.90
2019-03-15T12:02:18.750Z,23.91
2019-03-15T12:03:18.743Z,24.00
2019-03-15T12:04:18.748Z,23.71
2019-03-15T12:05:18.749Z,23.80
2019-03-15T12:06:18.755Z,23.80
2019-03-15T12:07:18.757Z,23.52
2019-03-15T12:08:18.763Z,23.62
2019-03-15T12:09:18.763Z,23.61
2019-03-15T12:10:18.780Z,23.71
2019-03-15T12:11:18.769Z,23.52
2019-03-15T12:12:21.575Z,23.72
2019-03-15T12:13:18.776Z,23.43
2019-03-15T12:14:18.780Z,23.52
2019-03-15T12:15:18.781Z,23.13
2019-03-15T12:16:18.786Z,23.61
2019-03-15T12:17:18.791Z,23.42
2019-03-15T12:18:18.793Z,23.52
2019-03-15T12:19:18.805Z,23.52
2019-03-15T12:20:18.805Z,23.61
2019-03-15T12:21:18.836Z,23.71
2019-03-15T12:22:18.812Z,23.61
2019-03-15T12:23:18.837Z,23.61
2019-03-15T12:24:18.816Z,23.22
2019-03-15T12:25:18.818Z,23.32
2019-03-15T12:26:18.827Z,23.52
2019-03-15T12:27:18.825Z,23.22
2019-03-15T12:28:18.831Z,23.32
2019-03-15T12:29:18.828Z,23.22
2019-03-15T12:30:18.836Z,23.22
2019-03-15T12:31:18.837Z,23.42
2019-03-15T12:32:18.841Z,23.42
2019-03-15T12:33:18.851Z,23.24
2019-03-15T12:34:18.848Z,23.42
2019-03-15T12:35:18.851Z,23.42
2019-03-15T12:36:18.857Z,23.32
2019-03-15T12:37:18.858Z,23.42
2019-03-15T12:38:18.869Z,23.22
2019-03-15T12:39:18.865Z,23.13
2019-03-15T12:40:18.868Z,23.22
2019-03-15T12:41:18.872Z,23.13
2019-03-15T12:42:18.880Z,23.22
2019-03-15T12:43:18.886Z,23.13
2019-03-15T12:44:18.883Z,23.22
2019-03-15T12:45:18.883Z,23.13
2019-03-15T12:46:18.891Z,23.03
2019-03-15T12:47:18.891Z,22.93
2019-03-15T12:48:18.895Z,23.13
2019-03-15T12:49:18.897Z,23.13
2019-03-15T12:50:18.904Z,23.22
2019-03-15T12:51:31.206Z,23.13
2019-03-15T12:52:20.596Z,23.22